sensor_id;sensor_type;location;lat;lon;timestamp;P1;durP1;ratioP1;P2;durP2;ratioP2
29908;SDS011;36247;51.952;6.146;2022-10-16T00:00:30;7.55;;;4.25;;
29908;SDS011;36247;51.952;6.146;2022-10-16T00:02:56;8.80;;;3.97;;
29908;SDS011;36247;51.952;6.146;2022-10-16T00:05:22;7.63;;;3.88;;
29908;SDS011;36247;51.952;6.146;2022-10-16T00:07:48;8.55;;;3.83;;
29908;SDS011;36247;51.952;6.146;2022-10-16T00:10:13;9.02;;;4.68;;
29908;SDS011;36247;51.952;6.146;2022-10-16T00:12:39;7.43;;;4.13;;
29908;SDS011;36247;51.952;6.146;2022-10-16T00:15:05;7.55;;;4.75;;
29908;SDS011;36247;51.952;6.146;2022-10-16T00:17:31;12.27;;;4.53;;
29908;SDS011;36247;51.952;6.146;2022-10-16T00:19:57;7.97;;;4.20;;
29908;SDS011;36247;51.952;6.146;2022-10-16T00:22:23;6.82;;;4.20;;
29908;SDS011;36247;51.952;6.146;2022-10-16T00:24:49;9.43;;;4.85;;
29908;SDS011;36247;51.952;6.146;2022-10-16T00:27:15;5.78;;;4.50;;
29908;SDS011;36247;51.952;6.146;2022-10-16T00:29:42;10.88;;;5.70;;
29908;SDS011;36247;51.952;6.146;2022-10-16T00:32:08;11.18;;;4.93;;
29908;SDS011;36247;51.952;6.146;2022-10-16T00:34:34;9.20;;;4.90;;
29908;SDS011;36247;51.952;6.146;2022-10-16T00:37:00;7.28;;;4.65;;
29908;SDS011;36247;51.952;6.146;2022-10-16T00:39:25;6.20;;;4.90;;
29908;SDS011;36247;51.952;6.146;2022-10-16T00:41:51;11.07;;;5.28;;
29908;SDS011;36247;51.952;6.146;2022-10-16T00:49:47;15.98;;;5.32;;
29908;SDS011;36247;51.952;6.146;2022-10-16T00:52:16;12.60;;;5.05;;
29908;SDS011;36247;51.952;6.146;2022-10-16T00:54:43;10.63;;;5.88;;
29908;SDS011;36247;51.952;6.146;2022-10-16T00:57:11;10.57;;;5.55;;
29908;SDS011;36247;51.952;6.146;2022-10-16T00:59:40;11.45;;;5.95;;
29908;SDS011;36247;51.952;6.146;2022-10-16T01:02:08;11.85;;;5.72;;
29908;SDS011;36247;51.952;6.146;2022-10-16T01:04:38;9.85;;;5.30;;
29908;SDS011;36247;51.952;6.146;2022-10-16T01:12:51;12.18;;;5.75;;
29908;SDS011;36247;51.952;6.146;2022-10-16T01:18:05;9.68;;;5.88;;
29908;SDS011;36247;51.952;6.146;2022-10-16T01:20:40;9.52;;;5.45;;
29908;SDS011;36247;51.952;6.146;2022-10-16T01:28:52;8.48;;;5.70;;
29908;SDS011;36247;51.952;6.146;2022-10-16T01:31:22;10.32;;;5.88;;
29908;SDS011;36247;51.952;6.146;2022-10-16T01:33:56;10.38;;;5.47;;
29908;SDS011;36247;51.952;6.146;2022-10-16T01:36:30;9.55;;;5.78;;
29908;SDS011;36247;51.952;6.146;2022-10-16T01:39:02;7.70;;;4.68;;
29908;SDS011;36247;51.952;6.146;2022-10-16T01:41:32;7.90;;;5.18;;
29908;SDS011;36247;51.952;6.146;2022-10-16T01:44:09;7.13;;;5.43;;
29908;SDS011;36247;51.952;6.146;2022-10-16T01:46:39;9.20;;;5.30;;
29908;SDS011;36247;51.952;6.146;2022-10-16T01:49:08;7.13;;;5.32;;
29908;SDS011;36247;51.952;6.146;2022-10-16T01:51:35;9.50;;;5.18;;
29908;SDS011;36247;51.952;6.146;2022-10-16T01:54:02;7.15;;;5.13;;
29908;SDS011;36247;51.952;6.146;2022-10-16T01:56:32;9.57;;;5.18;;
29908;SDS011;36247;51.952;6.146;2022-10-16T01:59:03;11.43;;;5.72;;
29908;SDS011;36247;51.952;6.146;2022-10-16T02:01:33;8.93;;;5.38;;
29908;SDS011;36247;51.952;6.146;2022-10-16T02:04:04;6.90;;;5.00;;
29908;SDS011;36247;51.952;6.146;2022-10-16T02:06:39;7.97;;;6.10;;
29908;SDS011;36247;51.952;6.146;2022-10-16T02:09:05;7.90;;;4.93;;
29908;SDS011;36247;51.952;6.146;2022-10-16T02:11:31;10.88;;;5.65;;
29908;SDS011;36247;51.952;6.146;2022-10-16T02:14:06;7.60;;;5.03;;
29908;SDS011;36247;51.952;6.146;2022-10-16T02:16:39;9.00;;;5.13;;
29908;SDS011;36247;51.952;6.146;2022-10-16T02:19:11;9.18;;;5.22;;
29908;SDS011;36247;51.952;6.146;2022-10-16T02:21:44;9.52;;;5.55;;
29908;SDS011;36247;51.952;6.146;2022-10-16T02:24:24;8.38;;;5.10;;
29908;SDS011;36247;51.952;6.146;2022-10-16T02:26:52;7.28;;;5.18;;
29908;SDS011;36247;51.952;6.146;2022-10-16T02:29:26;6.10;;;4.50;;
29908;SDS011;36247;51.952;6.146;2022-10-16T02:31:53;6.60;;;4.72;;
29908;SDS011;36247;51.952;6.146;2022-10-16T02:34:26;6.00;;;4.35;;
29908;SDS011;36247;51.952;6.146;2022-10-16T02:36:54;7.72;;;4.97;;
29908;SDS011;36247;51.952;6.146;2022-10-16T02:39:21;6.30;;;4.47;;
29908;SDS011;36247;51.952;6.146;2022-10-16T02:41:47;12.43;;;4.68;;
29908;SDS011;36247;51.952;6.146;2022-10-16T02:44:13;8.07;;;4.57;;
29908;SDS011;36247;51.952;6.146;2022-10-16T02:46:39;8.27;;;4.80;;
29908;SDS011;36247;51.952;6.146;2022-10-16T02:49:04;8.80;;;4.88;;
29908;SDS011;36247;51.952;6.146;2022-10-16T02:51:30;5.78;;;4.15;;
29908;SDS011;36247;51.952;6.146;2022-10-16T02:53:56;9.85;;;4.18;;
29908;SDS011;36247;51.952;6.146;2022-10-16T02:56:21;10.90;;;4.65;;
29908;SDS011;36247;51.952;6.146;2022-10-16T02:58:47;6.22;;;4.18;;
29908;SDS011;36247;51.952;6.146;2022-10-16T03:01:13;7.40;;;4.50;;
29908;SDS011;36247;51.952;6.146;2022-10-16T03:03:41;5.47;;;4.30;;
29908;SDS011;36247;51.952;6.146;2022-10-16T03:06:07;9.77;;;4.30;;
29908;SDS011;36247;51.952;6.146;2022-10-16T03:08:33;5.18;;;4.00;;
29908;SDS011;36247;51.952;6.146;2022-10-16T03:10:59;4.63;;;4.10;;
29908;SDS011;36247;51.952;6.146;2022-10-16T03:13:27;6.30;;;4.25;;
29908;SDS011;36247;51.952;6.146;2022-10-16T03:15:53;6.07;;;3.90;;
29908;SDS011;36247;51.952;6.146;2022-10-16T03:18:18;5.35;;;4.13;;
29908;SDS011;36247;51.952;6.146;2022-10-16T03:20:44;4.97;;;3.65;;
29908;SDS011;36247;51.952;6.146;2022-10-16T03:23:10;7.88;;;4.82;;
29908;SDS011;36247;51.952;6.146;2022-10-16T03:25:36;7.38;;;4.00;;
29908;SDS011;36247;51.952;6.146;2022-10-16T03:28:02;7.13;;;4.50;;
29908;SDS011;36247;51.952;6.146;2022-10-16T03:30:28;15.52;;;4.72;;
29908;SDS011;36247;51.952;6.146;2022-10-16T03:32:54;6.70;;;4.03;;
29908;SDS011;36247;51.952;6.146;2022-10-16T03:35:23;8.50;;;4.70;;
29908;SDS011;36247;51.952;6.146;2022-10-16T03:37:49;8.00;;;5.13;;
29908;SDS011;36247;51.952;6.146;2022-10-16T03:40:15;6.80;;;4.28;;
29908;SDS011;36247;51.952;6.146;2022-10-16T03:42:42;5.00;;;4.18;;
29908;SDS011;36247;51.952;6.146;2022-10-16T03:45:08;5.60;;;4.45;;
29908;SDS011;36247;51.952;6.146;2022-10-16T03:47:34;7.05;;;4.55;;
29908;SDS011;36247;51.952;6.146;2022-10-16T03:50:00;5.95;;;4.70;;
29908;SDS011;36247;51.952;6.146;2022-10-16T03:52:26;6.30;;;3.80;;
29908;SDS011;36247;51.952;6.146;2022-10-16T03:54:52;7.28;;;4.20;;
29908;SDS011;36247;51.952;6.146;2022-10-16T03:57:17;6.50;;;4.50;;
29908;SDS011;36247;51.952;6.146;2022-10-16T03:59:43;5.38;;;4.20;;
29908;SDS011;36247;51.952;6.146;2022-10-16T04:02:09;6.35;;;4.22;;
29908;SDS011;36247;51.952;6.146;2022-10-16T04:04:35;10.60;;;4.60;;
29908;SDS011;36247;51.952;6.146;2022-10-16T04:07:00;8.70;;;4.55;;
29908;SDS011;36247;51.952;6.146;2022-10-16T04:09:29;8.73;;;3.90;;
29908;SDS011;36247;51.952;6.146;2022-10-16T04:11:54;5.78;;;4.10;;
29908;SDS011;36247;51.952;6.146;2022-10-16T04:14:20;5.68;;;4.22;;
29908;SDS011;36247;51.952;6.146;2022-10-16T04:16:45;8.05;;;4.28;;
29908;SDS011;36247;51.952;6.146;2022-10-16T04:19:11;8.00;;;4.63;;
29908;SDS011;36247;51.952;6.146;2022-10-16T04:21:37;9.20;;;4.50;;
29908;SDS011;36247;51.952;6.146;2022-10-16T04:24:03;7.05;;;5.13;;
29908;SDS011;36247;51.952;6.146;2022-10-16T04:26:29;4.85;;;4.38;;
29908;SDS011;36247;51.952;6.146;2022-10-16T04:28:55;5.30;;;4.22;;
29908;SDS011;36247;51.952;6.146;2022-10-16T04:31:21;4.97;;;4.28;;
29908;SDS011;36247;51.952;6.146;2022-10-16T04:33:47;5.50;;;4.45;;
29908;SDS011;36247;51.952;6.146;2022-10-16T04:36:12;9.80;;;4.65;;
29908;SDS011;36247;51.952;6.146;2022-10-16T04:38:38;8.05;;;4.65;;
29908;SDS011;36247;51.952;6.146;2022-10-16T04:41:05;8.35;;;4.45;;
29908;SDS011;36247;51.952;6.146;2022-10-16T04:43:32;6.18;;;4.00;;
29908;SDS011;36247;51.952;6.146;2022-10-16T04:45:58;6.30;;;4.40;;
29908;SDS011;36247;51.952;6.146;2022-10-16T04:48:25;5.72;;;4.90;;
29908;SDS011;36247;51.952;6.146;2022-10-16T04:50:51;6.75;;;4.80;;
29908;SDS011;36247;51.952;6.146;2022-10-16T04:53:17;9.48;;;5.63;;
29908;SDS011;36247;51.952;6.146;2022-10-16T04:55:43;12.30;;;5.60;;
29908;SDS011;36247;51.952;6.146;2022-10-16T04:58:08;8.13;;;5.97;;
29908;SDS011;36247;51.952;6.146;2022-10-16T05:00:35;12.77;;;6.90;;
29908;SDS011;36247;51.952;6.146;2022-10-16T05:03:00;11.60;;;6.32;;
29908;SDS011;36247;51.952;6.146;2022-10-16T05:05:27;11.35;;;6.28;;
29908;SDS011;36247;51.952;6.146;2022-10-16T05:07:54;8.30;;;6.43;;
29908;SDS011;36247;51.952;6.146;2022-10-16T05:10:19;8.93;;;5.45;;
29908;SDS011;36247;51.952;6.146;2022-10-16T05:12:46;6.50;;;4.70;;
29908;SDS011;36247;51.952;6.146;2022-10-16T05:15:11;13.65;;;5.55;;
29908;SDS011;36247;51.952;6.146;2022-10-16T05:17:37;8.02;;;4.75;;
29908;SDS011;36247;51.952;6.146;2022-10-16T05:20:03;5.75;;;4.47;;
29908;SDS011;36247;51.952;6.146;2022-10-16T05:22:29;5.55;;;4.55;;
29908;SDS011;36247;51.952;6.146;2022-10-16T05:24:55;16.77;;;4.15;;
29908;SDS011;36247;51.952;6.146;2022-10-16T05:27:21;8.27;;;5.05;;
29908;SDS011;36247;51.952;6.146;2022-10-16T05:29:47;5.18;;;4.38;;
29908;SDS011;36247;51.952;6.146;2022-10-16T05:32:14;7.75;;;5.25;;
29908;SDS011;36247;51.952;6.146;2022-10-16T05:34:41;8.00;;;4.70;;
29908;SDS011;36247;51.952;6.146;2022-10-16T05:37:07;11.95;;;6.82;;
29908;SDS011;36247;51.952;6.146;2022-10-16T05:39:33;10.15;;;4.85;;
29908;SDS011;36247;51.952;6.146;2022-10-16T05:41:59;7.50;;;4.97;;
29908;SDS011;36247;51.952;6.146;2022-10-16T05:44:25;7.53;;;4.80;;
29908;SDS011;36247;51.952;6.146;2022-10-16T05:46:51;5.82;;;4.88;;
29908;SDS011;36247;51.952;6.146;2022-10-16T05:49:16;10.73;;;5.80;;
29908;SDS011;36247;51.952;6.146;2022-10-16T05:51:42;7.45;;;5.63;;
29908;SDS011;36247;51.952;6.146;2022-10-16T05:54:08;8.98;;;4.82;;
29908;SDS011;36247;51.952;6.146;2022-10-16T05:56:34;6.75;;;5.47;;
29908;SDS011;36247;51.952;6.146;2022-10-16T05:58:59;13.10;;;6.80;;
29908;SDS011;36247;51.952;6.146;2022-10-16T06:01:25;13.38;;;9.70;;
29908;SDS011;36247;51.952;6.146;2022-10-16T06:03:51;17.48;;;11.57;;
29908;SDS011;36247;51.952;6.146;2022-10-16T06:06:18;24.15;;;17.42;;
29908;SDS011;36247;51.952;6.146;2022-10-16T06:08:46;21.40;;;15.10;;
29908;SDS011;36247;51.952;6.146;2022-10-16T06:11:14;19.40;;;14.05;;
29908;SDS011;36247;51.952;6.146;2022-10-16T06:13:44;21.00;;;14.13;;
29908;SDS011;36247;51.952;6.146;2022-10-16T06:16:17;22.35;;;13.98;;
29908;SDS011;36247;51.952;6.146;2022-10-16T06:18:43;18.63;;;12.60;;
29908;SDS011;36247;51.952;6.146;2022-10-16T06:21:10;13.98;;;11.38;;
29908;SDS011;36247;51.952;6.146;2022-10-16T06:23:41;15.13;;;11.90;;
29908;SDS011;36247;51.952;6.146;2022-10-16T06:26:11;17.27;;;10.82;;
29908;SDS011;36247;51.952;6.146;2022-10-16T06:28:38;15.75;;;11.13;;
29908;SDS011;36247;51.952;6.146;2022-10-16T06:31:05;14.05;;;9.32;;
29908;SDS011;36247;51.952;6.146;2022-10-16T06:33:32;14.40;;;8.75;;
29908;SDS011;36247;51.952;6.146;2022-10-16T06:36:12;12.30;;;7.82;;
29908;SDS011;36247;51.952;6.146;2022-10-16T06:38:40;9.93;;;6.53;;
29908;SDS011;36247;51.952;6.146;2022-10-16T06:41:07;11.93;;;5.95;;
29908;SDS011;36247;51.952;6.146;2022-10-16T06:43:35;10.55;;;5.50;;
29908;SDS011;36247;51.952;6.146;2022-10-16T06:46:01;9.98;;;5.47;;
29908;SDS011;36247;51.952;6.146;2022-10-16T06:48:28;11.02;;;7.13;;
29908;SDS011;36247;51.952;6.146;2022-10-16T06:50:58;14.55;;;8.40;;
29908;SDS011;36247;51.952;6.146;2022-10-16T06:53:29;17.42;;;10.18;;
29908;SDS011;36247;51.952;6.146;2022-10-16T06:56:06;14.82;;;9.70;;
29908;SDS011;36247;51.952;6.146;2022-10-16T06:58:42;15.60;;;10.35;;
29908;SDS011;36247;51.952;6.146;2022-10-16T07:01:10;16.45;;;10.05;;
29908;SDS011;36247;51.952;6.146;2022-10-16T07:03:37;12.38;;;9.07;;
29908;SDS011;36247;51.952;6.146;2022-10-16T07:06:05;15.38;;;8.43;;
29908;SDS011;36247;51.952;6.146;2022-10-16T07:08:32;12.05;;;8.80;;
29908;SDS011;36247;51.952;6.146;2022-10-16T07:11:03;14.70;;;8.35;;
29908;SDS011;36247;51.952;6.146;2022-10-16T07:13:33;9.30;;;7.55;;
29908;SDS011;36247;51.952;6.146;2022-10-16T07:16:09;11.18;;;6.97;;
29908;SDS011;36247;51.952;6.146;2022-10-16T07:18:37;11.80;;;7.13;;
29908;SDS011;36247;51.952;6.146;2022-10-16T07:21:09;9.88;;;7.25;;
29908;SDS011;36247;51.952;6.146;2022-10-16T07:23:37;10.40;;;6.63;;
29908;SDS011;36247;51.952;6.146;2022-10-16T07:26:03;7.78;;;5.90;;
29908;SDS011;36247;51.952;6.146;2022-10-16T07:28:30;15.32;;;6.35;;
29908;SDS011;36247;51.952;6.146;2022-10-16T07:31:15;10.60;;;5.78;;
29908;SDS011;36247;51.952;6.146;2022-10-16T07:33:43;9.38;;;5.20;;
29908;SDS011;36247;51.952;6.146;2022-10-16T07:36:10;6.47;;;3.83;;
29908;SDS011;36247;51.952;6.146;2022-10-16T07:38:37;6.47;;;4.50;;
29908;SDS011;36247;51.952;6.146;2022-10-16T07:41:07;5.75;;;4.47;;
29908;SDS011;36247;51.952;6.146;2022-10-16T07:43:34;4.18;;;3.78;;
29908;SDS011;36247;51.952;6.146;2022-10-16T07:46:00;8.15;;;3.60;;
29908;SDS011;36247;51.952;6.146;2022-10-16T07:48:27;6.18;;;3.70;;
29908;SDS011;36247;51.952;6.146;2022-10-16T07:50:58;5.07;;;3.30;;
29908;SDS011;36247;51.952;6.146;2022-10-16T07:53:44;9.60;;;3.65;;
29908;SDS011;36247;51.952;6.146;2022-10-16T07:56:13;19.30;;;4.35;;
29908;SDS011;36247;51.952;6.146;2022-10-16T07:58:40;8.80;;;3.78;;
29908;SDS011;36247;51.952;6.146;2022-10-16T08:01:07;7.20;;;3.97;;
29908;SDS011;36247;51.952;6.146;2022-10-16T08:03:34;7.38;;;3.92;;
29908;SDS011;36247;51.952;6.146;2022-10-16T08:06:01;10.90;;;3.60;;
29908;SDS011;36247;51.952;6.146;2022-10-16T08:08:27;9.18;;;3.63;;
29908;SDS011;36247;51.952;6.146;2022-10-16T08:10:53;6.80;;;3.72;;
29908;SDS011;36247;51.952;6.146;2022-10-16T08:13:19;9.20;;;3.60;;
29908;SDS011;36247;51.952;6.146;2022-10-16T08:15:45;8.48;;;3.40;;
29908;SDS011;36247;51.952;6.146;2022-10-16T08:18:11;4.22;;;3.33;;
29908;SDS011;36247;51.952;6.146;2022-10-16T08:20:38;7.80;;;3.75;;
29908;SDS011;36247;51.952;6.146;2022-10-16T08:23:05;11.63;;;4.38;;
29908;SDS011;36247;51.952;6.146;2022-10-16T08:25:34;10.13;;;3.65;;
29908;SDS011;36247;51.952;6.146;2022-10-16T08:28:04;11.90;;;4.15;;
29908;SDS011;36247;51.952;6.146;2022-10-16T08:30:30;9.77;;;4.40;;
29908;SDS011;36247;51.952;6.146;2022-10-16T08:32:56;9.25;;;3.50;;
29908;SDS011;36247;51.952;6.146;2022-10-16T08:35:23;5.25;;;3.67;;
29908;SDS011;36247;51.952;6.146;2022-10-16T08:37:49;10.85;;;3.42;;
29908;SDS011;36247;51.952;6.146;2022-10-16T08:40:20;8.07;;;3.83;;
29908;SDS011;36247;51.952;6.146;2022-10-16T08:48:56;7.77;;;3.33;;
29908;SDS011;36247;51.952;6.146;2022-10-16T08:51:25;5.85;;;3.20;;
29908;SDS011;36247;51.952;6.146;2022-10-16T08:53:58;4.22;;;3.17;;
29908;SDS011;36247;51.952;6.146;2022-10-16T08:56:28;7.80;;;3.53;;
29908;SDS011;36247;51.952;6.146;2022-10-16T08:58:54;7.55;;;3.75;;
29908;SDS011;36247;51.952;6.146;2022-10-16T09:01:21;5.32;;;3.33;;
29908;SDS011;36247;51.952;6.146;2022-10-16T09:06:45;6.88;;;3.38;;
29908;SDS011;36247;51.952;6.146;2022-10-16T09:12:16;4.78;;;3.03;;
29908;SDS011;36247;51.952;6.146;2022-10-16T09:14:52;7.55;;;3.55;;
29908;SDS011;36247;51.952;6.146;2022-10-16T09:17:32;5.05;;;2.83;;
29908;SDS011;36247;51.952;6.146;2022-10-16T09:22:30;4.85;;;2.70;;
29908;SDS011;36247;51.952;6.146;2022-10-16T09:24:59;7.10;;;2.75;;
29908;SDS011;36247;51.952;6.146;2022-10-16T09:27:35;7.50;;;2.95;;
29908;SDS011;36247;51.952;6.146;2022-10-16T09:30:06;4.03;;;2.45;;
29908;SDS011;36247;51.952;6.146;2022-10-16T09:32:40;12.77;;;3.00;;
29908;SDS011;36247;51.952;6.146;2022-10-16T09:35:14;7.32;;;3.05;;
29908;SDS011;36247;51.952;6.146;2022-10-16T09:37:43;5.85;;;2.42;;
29908;SDS011;36247;51.952;6.146;2022-10-16T09:40:13;8.77;;;2.40;;
29908;SDS011;36247;51.952;6.146;2022-10-16T09:43:46;8.38;;;2.17;;
29908;SDS011;36247;51.952;6.146;2022-10-16T09:45:55;7.07;;;2.33;;
29908;SDS011;36247;51.952;6.146;2022-10-16T09:48:22;10.60;;;3.40;;
29908;SDS011;36247;51.952;6.146;2022-10-16T09:50:59;6.53;;;2.58;;
29908;SDS011;36247;51.952;6.146;2022-10-16T09:53:42;8.00;;;2.72;;
29908;SDS011;36247;51.952;6.146;2022-10-16T09:56:10;10.65;;;2.55;;
29908;SDS011;36247;51.952;6.146;2022-10-16T09:58:42;9.82;;;2.50;;
29908;SDS011;36247;51.952;6.146;2022-10-16T10:01:13;10.32;;;2.53;;
29908;SDS011;36247;51.952;6.146;2022-10-16T10:03:41;9.35;;;2.88;;
29908;SDS011;36247;51.952;6.146;2022-10-16T10:06:22;7.47;;;2.40;;
29908;SDS011;36247;51.952;6.146;2022-10-16T10:11:42;11.52;;;3.45;;
29908;SDS011;36247;51.952;6.146;2022-10-16T10:16:42;7.18;;;2.42;;
29908;SDS011;36247;51.952;6.146;2022-10-16T10:19:17;7.20;;;2.75;;
29908;SDS011;36247;51.952;6.146;2022-10-16T10:21:45;10.10;;;2.90;;
29908;SDS011;36247;51.952;6.146;2022-10-16T10:24:12;6.93;;;1.98;;
29908;SDS011;36247;51.952;6.146;2022-10-16T10:27:16;7.32;;;2.28;;
29908;SDS011;36247;51.952;6.146;2022-10-16T10:29:43;10.70;;;2.78;;
29908;SDS011;36247;51.952;6.146;2022-10-16T10:35:22;12.43;;;3.00;;
29908;SDS011;36247;51.952;6.146;2022-10-16T10:38:03;8.25;;;2.13;;
29908;SDS011;36247;51.952;6.146;2022-10-16T10:40:45;10.63;;;2.25;;
29908;SDS011;36247;51.952;6.146;2022-10-16T10:43:28;9.27;;;2.22;;
29908;SDS011;36247;51.952;6.146;2022-10-16T10:46:07;11.45;;;2.83;;
29908;SDS011;36247;51.952;6.146;2022-10-16T10:48:54;8.40;;;2.30;;
29908;SDS011;36247;51.952;6.146;2022-10-16T10:54:45;9.25;;;2.65;;
29908;SDS011;36247;51.952;6.146;2022-10-16T11:05:33;9.93;;;3.33;;
29908;SDS011;36247;51.952;6.146;2022-10-16T11:08:18;7.50;;;2.45;;
29908;SDS011;36247;51.952;6.146;2022-10-16T11:10:54;17.90;;;2.88;;
29908;SDS011;36247;51.952;6.146;2022-10-16T11:13:32;6.80;;;2.15;;
29908;SDS011;36247;51.952;6.146;2022-10-16T11:16:07;8.95;;;2.30;;
29908;SDS011;36247;51.952;6.146;2022-10-16T11:24:59;8.25;;;2.67;;
29908;SDS011;36247;51.952;6.146;2022-10-16T11:27:37;12.23;;;2.42;;
29908;SDS011;36247;51.952;6.146;2022-10-16T11:30:12;9.02;;;2.05;;
29908;SDS011;36247;51.952;6.146;2022-10-16T11:38:34;11.20;;;2.60;;
29908;SDS011;36247;51.952;6.146;2022-10-16T11:41:09;11.13;;;2.70;;
29908;SDS011;36247;51.952;6.146;2022-10-16T11:43:43;10.38;;;2.47;;
29908;SDS011;36247;51.952;6.146;2022-10-16T11:46:19;11.75;;;3.28;;
29908;SDS011;36247;51.952;6.146;2022-10-16T11:48:53;10.23;;;1.92;;
29908;SDS011;36247;51.952;6.146;2022-10-16T11:56:58;6.13;;;2.17;;
29908;SDS011;36247;51.952;6.146;2022-10-16T12:05:01;10.38;;;2.40;;
29908;SDS011;36247;51.952;6.146;2022-10-16T12:08:16;8.68;;;2.25;;
29908;SDS011;36247;51.952;6.146;2022-10-16T12:10:38;10.20;;;2.30;;
29908;SDS011;36247;51.952;6.146;2022-10-16T12:16:08;12.65;;;2.15;;
29908;SDS011;36247;51.952;6.146;2022-10-16T12:18:46;10.73;;;3.28;;
29908;SDS011;36247;51.952;6.146;2022-10-16T12:21:14;9.45;;;2.47;;
29908;SDS011;36247;51.952;6.146;2022-10-16T12:23:48;10.40;;;2.63;;
29908;SDS011;36247;51.952;6.146;2022-10-16T12:26:26;9.82;;;2.55;;
29908;SDS011;36247;51.952;6.146;2022-10-16T12:28:54;9.80;;;1.90;;
29908;SDS011;36247;51.952;6.146;2022-10-16T12:31:21;12.55;;;3.75;;
29908;SDS011;36247;51.952;6.146;2022-10-16T12:34:14;11.05;;;2.10;;
29908;SDS011;36247;51.952;6.146;2022-10-16T12:37:23;10.70;;;2.27;;
29908;SDS011;36247;51.952;6.146;2022-10-16T12:39:54;7.45;;;2.20;;
29908;SDS011;36247;51.952;6.146;2022-10-16T12:42:23;10.82;;;3.20;;
29908;SDS011;36247;51.952;6.146;2022-10-16T12:44:58;10.85;;;2.28;;
29908;SDS011;36247;51.952;6.146;2022-10-16T12:49:56;11.35;;;2.28;;
29908;SDS011;36247;51.952;6.146;2022-10-16T12:54:58;8.30;;;2.22;;
29908;SDS011;36247;51.952;6.146;2022-10-16T13:14:19;12.38;;;2.28;;
29908;SDS011;36247;51.952;6.146;2022-10-16T13:28:01;8.30;;;2.17;;
29908;SDS011;36247;51.952;6.146;2022-10-16T13:30:41;10.60;;;2.15;;
29908;SDS011;36247;51.952;6.146;2022-10-16T13:33:36;8.88;;;2.30;;
29908;SDS011;36247;51.952;6.146;2022-10-16T13:36:04;8.88;;;2.05;;
29908;SDS011;36247;51.952;6.146;2022-10-16T13:38:34;13.02;;;2.55;;
29908;SDS011;36247;51.952;6.146;2022-10-16T13:41:05;19.35;;;2.80;;
29908;SDS011;36247;51.952;6.146;2022-10-16T13:43:52;10.43;;;1.95;;
29908;SDS011;36247;51.952;6.146;2022-10-16T13:46:22;10.43;;;2.38;;
29908;SDS011;36247;51.952;6.146;2022-10-16T13:49:03;11.82;;;2.70;;
29908;SDS011;36247;51.952;6.146;2022-10-16T13:51:31;9.80;;;2.45;;
29908;SDS011;36247;51.952;6.146;2022-10-16T13:53:58;10.50;;;2.60;;
29908;SDS011;36247;51.952;6.146;2022-10-16T13:56:28;8.02;;;2.80;;
29908;SDS011;36247;51.952;6.146;2022-10-16T14:01:35;11.40;;;2.75;;
29908;SDS011;36247;51.952;6.146;2022-10-16T14:04:08;9.80;;;2.83;;
29908;SDS011;36247;51.952;6.146;2022-10-16T14:06:36;11.38;;;2.83;;
29908;SDS011;36247;51.952;6.146;2022-10-16T14:09:14;9.77;;;2.80;;
29908;SDS011;36247;51.952;6.146;2022-10-16T14:11:55;11.10;;;2.65;;
29908;SDS011;36247;51.952;6.146;2022-10-16T14:14:24;11.70;;;2.90;;
29908;SDS011;36247;51.952;6.146;2022-10-16T14:16:52;10.80;;;2.95;;
29908;SDS011;36247;51.952;6.146;2022-10-16T14:21:47;9.50;;;2.40;;
29908;SDS011;36247;51.952;6.146;2022-10-16T14:24:13;11.57;;;2.70;;
29908;SDS011;36247;51.952;6.146;2022-10-16T14:26:49;10.32;;;2.78;;
29908;SDS011;36247;51.952;6.146;2022-10-16T14:29:19;10.30;;;2.55;;
29908;SDS011;36247;51.952;6.146;2022-10-16T14:31:55;7.07;;;2.30;;
29908;SDS011;36247;51.952;6.146;2022-10-16T14:34:27;8.18;;;2.83;;
29908;SDS011;36247;51.952;6.146;2022-10-16T14:37:06;11.13;;;2.90;;
29908;SDS011;36247;51.952;6.146;2022-10-16T14:39:50;10.55;;;2.33;;
29908;SDS011;36247;51.952;6.146;2022-10-16T14:42:17;9.95;;;2.85;;
29908;SDS011;36247;51.952;6.146;2022-10-16T14:44:45;12.05;;;2.20;;
29908;SDS011;36247;51.952;6.146;2022-10-16T14:47:13;5.95;;;2.55;;
29908;SDS011;36247;51.952;6.146;2022-10-16T14:49:47;9.02;;;2.67;;
29908;SDS011;36247;51.952;6.146;2022-10-16T14:52:13;4.03;;;1.60;;
29908;SDS011;36247;51.952;6.146;2022-10-16T14:54:39;9.23;;;2.40;;
29908;SDS011;36247;51.952;6.146;2022-10-16T14:57:05;6.47;;;1.73;;
29908;SDS011;36247;51.952;6.146;2022-10-16T14:59:42;9.65;;;2.30;;
29908;SDS011;36247;51.952;6.146;2022-10-16T15:04:46;9.23;;;2.42;;
29908;SDS011;36247;51.952;6.146;2022-10-16T15:07:12;9.70;;;2.92;;
29908;SDS011;36247;51.952;6.146;2022-10-16T15:09:38;14.25;;;2.28;;
29908;SDS011;36247;51.952;6.146;2022-10-16T15:12:06;13.40;;;3.15;;
29908;SDS011;36247;51.952;6.146;2022-10-16T15:14:32;8.13;;;2.35;;
29908;SDS011;36247;51.952;6.146;2022-10-16T15:16:58;14.13;;;3.10;;
29908;SDS011;36247;51.952;6.146;2022-10-16T15:19:23;14.50;;;2.85;;
29908;SDS011;36247;51.952;6.146;2022-10-16T15:21:49;5.57;;;2.15;;
29908;SDS011;36247;51.952;6.146;2022-10-16T15:24:14;7.88;;;2.30;;
29908;SDS011;36247;51.952;6.146;2022-10-16T15:26:40;16.25;;;3.00;;
29908;SDS011;36247;51.952;6.146;2022-10-16T15:29:06;11.18;;;2.40;;
29908;SDS011;36247;51.952;6.146;2022-10-16T15:31:33;8.00;;;1.95;;
29908;SDS011;36247;51.952;6.146;2022-10-16T15:33:59;8.32;;;2.20;;
29908;SDS011;36247;51.952;6.146;2022-10-16T15:36:27;7.97;;;2.50;;
29908;SDS011;36247;51.952;6.146;2022-10-16T15:38:54;13.82;;;3.13;;
29908;SDS011;36247;51.952;6.146;2022-10-16T15:41:20;9.45;;;2.10;;
29908;SDS011;36247;51.952;6.146;2022-10-16T15:43:47;11.40;;;2.28;;
29908;SDS011;36247;51.952;6.146;2022-10-16T15:46:14;8.48;;;2.00;;
29908;SDS011;36247;51.952;6.146;2022-10-16T15:48:47;10.17;;;2.00;;
29908;SDS011;36247;51.952;6.146;2022-10-16T15:51:14;7.40;;;2.33;;
29908;SDS011;36247;51.952;6.146;2022-10-16T15:53:40;11.25;;;2.55;;
29908;SDS011;36247;51.952;6.146;2022-10-16T15:56:06;8.23;;;2.20;;
29908;SDS011;36247;51.952;6.146;2022-10-16T15:58:34;9.48;;;3.00;;
29908;SDS011;36247;51.952;6.146;2022-10-16T16:01:00;8.65;;;3.25;;
29908;SDS011;36247;51.952;6.146;2022-10-16T16:03:27;9.57;;;3.05;;
29908;SDS011;36247;51.952;6.146;2022-10-16T16:05:53;12.25;;;3.88;;
29908;SDS011;36247;51.952;6.146;2022-10-16T16:08:20;8.77;;;3.60;;
29908;SDS011;36247;51.952;6.146;2022-10-16T16:10:56;10.98;;;3.15;;
29908;SDS011;36247;51.952;6.146;2022-10-16T16:13:42;12.10;;;4.50;;
29908;SDS011;36247;51.952;6.146;2022-10-16T16:16:09;13.05;;;4.95;;
29908;SDS011;36247;51.952;6.146;2022-10-16T16:18:37;12.10;;;4.35;;
29908;SDS011;36247;51.952;6.146;2022-10-16T16:21:03;11.77;;;4.43;;
29908;SDS011;36247;51.952;6.146;2022-10-16T16:23:29;11.50;;;4.10;;
29908;SDS011;36247;51.952;6.146;2022-10-16T16:26:02;11.35;;;4.05;;
29908;SDS011;36247;51.952;6.146;2022-10-16T16:28:28;7.32;;;3.30;;
29908;SDS011;36247;51.952;6.146;2022-10-16T16:30:54;11.98;;;3.30;;
29908;SDS011;36247;51.952;6.146;2022-10-16T16:33:20;12.45;;;3.90;;
29908;SDS011;36247;51.952;6.146;2022-10-16T16:35:49;10.82;;;3.60;;
29908;SDS011;36247;51.952;6.146;2022-10-16T16:38:14;6.88;;;3.30;;
29908;SDS011;36247;51.952;6.146;2022-10-16T16:40:40;6.85;;;2.90;;
29908;SDS011;36247;51.952;6.146;2022-10-16T16:43:06;11.52;;;2.65;;
29908;SDS011;36247;51.952;6.146;2022-10-16T16:45:34;14.55;;;2.67;;
29908;SDS011;36247;51.952;6.146;2022-10-16T16:48:01;11.05;;;2.92;;
29908;SDS011;36247;51.952;6.146;2022-10-16T16:50:27;12.05;;;3.00;;
29908;SDS011;36247;51.952;6.146;2022-10-16T16:52:52;7.85;;;2.55;;
29908;SDS011;36247;51.952;6.146;2022-10-16T16:55:18;10.77;;;2.70;;
29908;SDS011;36247;51.952;6.146;2022-10-16T16:57:47;10.65;;;3.05;;